Time;durP1;ratioP1;P1;durP2;ratioP2;P2;SDS_P1;SDS_P2;PMS_P1;PMS_P2;Temp;Humidity;BMP_temperature;BMP_pressure;BME280_temperature;BME280_humidity;BME280_pressure;Samples;Min_cycle;Max_cycle;Signal;HPM_P1;HPM_P2
2022/07/26 00:01:07;;;;;;;;;4.67;4.00;;;;;21.84;69.97;100894.47;5029901;28;46182;-72
2022/07/26 00:03:33;;;;;;;;;3.33;3.00;;;;;21.81;70.05;100903.38;5028268;28;45379;-72
2022/07/26 00:05:59;;;;;;;;;5.00;4.00;;;;;21.84;69.76;100894.47;5030896;28;45530;-72
2022/07/26 00:08:25;;;;;;;;;5.00;4.67;;;;;21.90;69.80;100889.09;5030947;28;45228;-72
2022/07/26 00:10:51;;;;;;;;;4.00;4.00;;;;;21.84;70.88;100895.38;5022007;28;46067;-72
2022/07/26 00:13:19;;;;;;;;;5.67;5.67;;;;;21.80;70.92;100892.75;5030432;28;45466;-73
2022/07/26 00:15:46;;;;;;;;;4.67;4.67;;;;;21.76;70.82;100891.88;5030385;28;45500;-72
2022/07/26 00:18:13;;;;;;;;;4.00;4.00;;;;;21.84;70.13;100889.16;5028543;28;45496;-72
2022/07/26 00:20:39;;;;;;;;;5.33;4.33;;;;;21.88;70.47;100884.69;5029293;28;45466;-72
2022/07/26 00:23:05;;;;;;;;;5.00;4.00;;;;;21.98;69.85;100891.66;5030916;28;45522;-72
2022/07/26 00:25:30;;;;;;;;;8.67;4.33;;;;;22.00;70.01;100888.09;5019436;28;45548;-73
2022/07/26 00:27:56;;;;;;;;;7.00;6.00;;;;;22.02;70.00;100886.31;5031987;28;45313;-73
2022/07/26 00:30:22;;;;;;;;;5.33;5.33;;;;;21.90;70.81;100874.91;5029115;28;45388;-72
2022/07/26 00:32:47;;;;;;;;;5.00;5.00;;;;;21.89;69.48;100882.00;5045359;28;45510;-73
2022/07/26 00:35:13;;;;;;;;;3.33;3.00;;;;;21.78;71.80;100874.13;5025910;28;45480;-73
2022/07/26 00:37:39;;;;;;;;;4.67;4.00;;;;;21.91;72.38;100888.19;5027708;28;45591;-73
2022/07/26 00:40:05;;;;;;;;;4.33;4.33;;;;;21.96;71.68;100886.34;5024795;28;45492;-72
2022/07/26 00:42:32;;;;;;;;;4.00;3.33;;;;;21.94;72.26;100885.50;5029812;28;45638;-73
2022/07/26 00:44:58;;;;;;;;;4.00;4.00;;;;;21.73;72.29;100864.47;5018587;28;45544;-73
2022/07/26 00:47:24;;;;;;;;;4.33;4.33;;;;;21.84;72.75;100886.50;5019036;28;45722;-73
2022/07/26 00:49:49;;;;;;;;;4.00;4.00;;;;;21.85;72.96;100880.28;5026622;28;45705;-72
2022/07/26 00:52:16;;;;;;;;;5.00;4.67;;;;;21.84;72.93;100879.41;5038760;28;45355;-73
2022/07/26 00:54:44;;;;;;;;;6.33;5.00;;;;;21.89;72.77;100876.69;5037856;28;45461;-72
2022/07/26 00:57:13;;;;;;;;;2.00;2.00;;;;;21.95;72.78;100876.63;5026501;28;45426;-73
2022/07/26 00:59:39;;;;;;;;;5.00;4.67;;;;;21.99;72.23;100867.72;5018277;28;46102;-72
2022/07/26 01:02:07;;;;;;;;;4.00;4.00;;;;;21.98;71.95;100871.25;5029245;28;45517;-72
2022/07/26 01:04:33;;;;;;;;;6.00;4.00;;;;;21.99;71.68;100866.84;5038335;28;45584;-72
2022/07/26 01:06:59;;;;;;;;;5.00;4.00;;;;;21.89;72.73;100862.53;5021420;28;45489;-72
2022/07/26 01:09:26;;;;;;;;;6.00;6.00;;;;;21.90;72.13;100856.28;5030285;28;45534;-73
2022/07/26 01:11:51;;;;;;;;;4.33;4.00;;;;;21.89;71.93;100843.91;5017829;28;45488;-72
2022/07/26 01:14:21;;;;;;;;;3.00;3.00;;;;;21.94;70.95;100858.88;5018281;28;45472;-73
2022/07/26 01:16:47;;;;;;;;;5.67;4.00;;;;;21.90;71.68;100869.59;5021963;28;45166;-72
2022/07/26 01:19:13;;;;;;;;;6.00;5.67;;;;;21.77;72.17;100847.59;5029713;28;46006;-73
2022/07/26 01:21:38;;;;;;;;;3.67;3.67;;;;;21.67;71.65;100835.31;5029421;28;45328;-73
2022/07/26 01:24:05;;;;;;;;;4.67;4.00;;;;;21.79;72.44;100859.09;5021850;28;45796;-73
2022/07/26 01:26:31;;;;;;;;;6.00;5.00;;;;;21.76;72.36;100853.78;5018272;28;45323;-72
2022/07/26 01:28:56;;;;;;;;;5.00;4.33;;;;;21.62;72.39;100851.28;5025514;28;45476;-72
2022/07/26 01:31:22;;;;;;;;;5.00;4.50;;;;;21.61;73.45;100858.38;5025979;28;45504;-72
2022/07/26 01:33:48;;;;;;;;;4.33;4.33;;;;;21.62;72.41;100849.50;5033233;28;45560;-72
2022/07/26 01:36:14;;;;;;;;;5.00;5.00;;;;;21.56;73.05;100832.75;5017686;28;45396;-73
2022/07/26 01:38:40;;;;;;;;;5.00;5.00;;;;;21.76;72.65;100856.44;5024099;28;45440;-73
2022/07/26 01:41:06;;;;;;;;;3.00;3.00;;;;;21.80;72.74;100863.50;5035265;28;45260;-73
2022/07/26 01:43:31;;;;;;;;;6.33;4.67;;;;;21.62;72.73;100822.91;5017854;28;45445;-72
2022/07/26 01:45:57;;;;;;;;;6.33;5.33;;;;;21.74;71.96;100840.50;5020907;28;45478;-72
2022/07/26 01:48:23;;;;;;;;;4.67;4.33;;;;;21.84;72.54;100850.16;5036189;28;45457;-73
2022/07/26 01:50:48;;;;;;;;;6.00;4.00;;;;;21.55;72.45;100807.06;5036099;28;45480;-73
2022/07/26 01:53:14;;;;;;;;;5.00;4.00;;;;;21.83;72.17;100842.19;5036596;28;46038;-73
2022/07/26 01:55:40;;;;;;;;;4.67;4.67;;;;;21.89;71.85;100847.44;5017521;28;45498;-73
2022/07/26 01:58:05;;;;;;;;;6.00;5.00;;;;;21.87;72.34;100845.72;5030530;28;45474;-73
2022/07/26 02:00:32;;;;;;;;;5.00;4.67;;;;;21.87;72.32;100843.91;5020949;28;45406;-72
2022/07/26 02:02:57;;;;;;;;;5.00;5.00;;;;;21.80;72.48;100832.44;5030752;28;45331;-72
2022/07/26 02:05:23;;;;;;;;;5.00;4.67;;;;;21.81;72.74;100846.66;5027546;28;45403;-73
2022/07/26 02:07:49;;;;;;;;;6.00;5.33;;;;;21.56;73.40;100815.00;5022234;28;45581;-73
2022/07/26 02:10:14;;;;;;;;;6.00;4.00;;;;;21.53;72.58;100807.09;5032234;28;45409;-72
2022/07/26 02:12:41;;;;;;;;;4.33;4.00;;;;;21.69;73.18;100833.50;5016867;28;45460;-73
2022/07/26 02:15:08;;;;;;;;;4.33;4.33;;;;;21.70;72.44;100827.28;5017429;28;45572;-73
2022/07/26 02:17:33;;;;;;;;;5.00;5.00;;;;;21.57;72.33;100808.81;5031270;28;46435;-72
2022/07/26 02:19:59;;;;;;;;;4.00;4.00;;;;;21.62;72.35;100820.25;5017849;28;45249;-73
2022/07/26 02:22:25;;;;;;;;;5.00;4.00;;;;;21.42;72.54;100780.56;5023509;28;45492;-73
2022/07/26 02:24:51;;;;;;;;;3.00;3.00;;;;;21.67;72.71;100822.00;5035963;28;45520;-74
2022/07/26 02:27:17;;;;;;;;;4.00;4.00;;;;;21.66;72.47;100818.44;5019267;28;46022;-73
2022/07/26 02:29:43;;;;;;;;;5.00;4.00;;;;;21.65;72.86;100814.91;5021992;28;45409;-74
2022/07/26 02:32:09;;;;;;;;;5.00;5.00;;;;;21.62;72.65;100806.97;5036084;28;45401;-73
2022/07/26 02:34:35;;;;;;;;;4.00;3.33;;;;;21.57;72.00;100805.28;5017405;28;45394;-72
2022/07/26 02:37:01;;;;;;;;;4.00;3.00;;;;;21.59;72.55;100809.66;5033260;28;45485;-72
2022/07/26 02:39:26;;;;;;;;;6.00;5.67;;;;;21.26;72.17;100753.28;5023845;28;45517;-72
2022/07/26 02:41:57;;;;;;;;;3.33;3.33;;;;;21.34;72.39;100786.88;5032201;28;46196;-72
2022/07/26 02:44:24;;;;;;;;;3.67;3.67;;;;;21.39;72.36;100806.31;5024079;28;45252;-73
2022/07/26 02:46:50;;;;;;;;;4.00;3.33;;;;;21.32;72.17;100800.16;5016579;28;45385;-72
2022/07/26 02:49:17;;;;;;;;;5.00;4.00;;;;;21.19;73.54;100803.88;5036703;28;45379;-73
2022/07/26 02:51:42;;;;;;;;;4.33;4.33;;;;;21.15;73.32;100799.44;5032309;28;45493;-72
2022/07/26 02:54:08;;;;;;;;;4.00;3.33;;;;;21.11;73.66;100797.72;5016890;28;45337;-72
2022/07/26 02:56:33;;;;;;;;;5.00;4.33;;;;;21.03;73.80;100798.69;5018079;28;45434;-72
2022/07/26 02:58:59;;;;;;;;;3.33;3.00;;;;;20.99;74.52;100799.63;5036814;28;45291;-71
2022/07/26 03:01:24;;;;;;;;;4.00;4.00;;;;;20.96;73.85;100796.09;5019966;28;45374;-72
2022/07/26 03:03:50;;;;;;;;;4.67;4.33;;;;;20.85;74.08;100775.84;5037024;28;45454;-72
2022/07/26 03:06:16;;;;;;;;;3.33;3.33;;;;;20.95;73.50;100791.66;5034582;28;46161;-72
2022/07/26 03:08:41;;;;;;;;;4.33;4.00;;;;;20.70;73.42;100760.03;5016056;28;45446;-72
2022/07/26 03:11:07;;;;;;;;;4.00;4.00;;;;;20.79;73.81;100794.47;5024291;28;45448;-72
2022/07/26 03:13:33;;;;;;;;;4.00;4.00;;;;;20.76;74.47;100790.97;5036124;28;45586;-72
2022/07/26 03:15:58;;;;;;;;;4.00;4.00;;;;;20.80;73.94;100790.03;5019510;28;45456;-72
2022/07/26 03:18:24;;;;;;;;;5.00;5.00;;;;;20.89;74.58;100794.38;5020885;28;45617;-72
2022/07/26 03:20:50;;;;;;;;;4.00;4.00;;;;;20.92;74.01;100786.41;5028151;28;45576;-72
2022/07/26 03:23:16;;;;;;;;;4.00;4.00;;;;;20.81;74.40;100786.47;5028705;28;45474;-72
2022/07/26 03:25:42;;;;;;;;;3.00;3.00;;;;;20.76;74.19;100783.00;5020317;28;45963;-72
2022/07/26 03:28:07;;;;;;;;;4.00;4.00;;;;;20.73;74.34;100786.56;5016437;28;45387;-73
2022/07/26 03:30:33;;;;;;;;;3.33;3.33;;;;;20.69;73.83;100766.25;5018198;28;45579;-72
2022/07/26 03:32:59;;;;;;;;;3.67;3.00;;;;;20.51;74.00;100748.63;5015209;28;45594;-72
2022/07/26 03:35:25;;;;;;;;;2.67;2.00;;;;;20.62;74.03;100745.94;5018934;28;46389;-72
2022/07/26 03:37:50;;;;;;;;;3.00;3.00;;;;;20.66;73.66;100776.88;5016001;28;45398;-72
2022/07/26 03:40:17;;;;;;;;;4.00;4.00;;;;;20.60;73.98;100777.81;5016484;28;45540;-72
2022/07/26 03:42:47;;;;;;;;;4.00;4.00;;;;;20.60;73.70;100772.50;5016526;28;45459;-72
2022/07/26 03:45:13;;;;;;;;;3.00;3.00;;;;;20.47;74.04;100744.25;5015931;28;46061;-72
2022/07/26 03:47:39;;;;;;;;;2.00;2.00;;;;;20.72;73.83;100776.81;5015941;28;45474;-72
2022/07/26 03:50:06;;;;;;;;;4.00;3.00;;;;;20.74;73.51;100780.34;5016307;28;45497;-72
2022/07/26 03:52:31;;;;;;;;;2.67;2.00;;;;;20.69;73.72;100771.56;5016102;28;45601;-72
2022/07/26 03:54:57;;;;;;;;;4.00;3.00;;;;;20.68;73.49;100766.25;5015156;28;45534;-72
2022/07/26 03:57:23;;;;;;;;;3.00;3.00;;;;;20.66;73.48;100763.59;5015725;28;45655;-72
2022/07/26 03:59:49;;;;;;;;;4.00;4.00;;;;;20.65;73.18;100762.72;5016104;28;45557;-72
2022/07/26 04:02:14;;;;;;;;;4.00;4.00;;;;;20.55;73.47;100762.75;5018834;28;45347;-72
2022/07/26 04:04:40;;;;;;;;;3.00;3.00;;;;;20.58;73.86;100789.28;5030483;28;46041;-73
2022/07/26 04:07:06;;;;;;;;;3.00;3.00;;;;;20.62;73.27;100776.00;5019269;28;45305;-72
2022/07/26 04:09:31;;;;;;;;;5.33;4.33;;;;;20.43;73.54;100730.16;5032118;28;45498;-72
2022/07/26 04:11:57;;;;;;;;;3.00;3.00;;;;;20.70;73.00;100769.78;5022356;28;45412;-72
2022/07/26 04:14:22;;;;;;;;;4.00;3.67;;;;;20.65;73.04;100761.81;5025796;28;45454;-72
2022/07/26 04:16:48;;;;;;;;;3.00;3.00;;;;;20.68;73.13;100764.47;5018653;28;45501;-71
2022/07/26 04:19:13;;;;;;;;;3.00;2.33;;;;;20.68;73.22;100766.25;5030006;28;45442;-72
2022/07/26 04:21:39;;;;;;;;;5.00;3.67;;;;;20.69;72.54;100768.91;5023482;28;45398;-72
2022/07/26 04:24:05;;;;;;;;;3.33;3.00;;;;;20.68;73.08;100768.91;5018950;28;45424;-72
2022/07/26 04:26:31;;;;;;;;;2.00;2.00;;;;;20.73;72.67;100767.97;5037232;28;45441;-72
2022/07/26 04:28:56;;;;;;;;;3.33;3.00;;;;;20.75;72.52;100759.97;5018854;28;45541;-73
2022/07/26 04:31:23;;;;;;;;;4.00;4.00;;;;;20.76;72.38;100770.59;5018915;28;45379;-79
2022/07/26 04:33:48;;;;;;;;;3.33;3.00;;;;;20.77;72.36;100759.09;5021332;28;46189;-73
2022/07/26 04:36:14;;;;;;;;;3.00;2.67;;;;;20.77;72.22;100763.50;5031287;28;45378;-73
2022/07/26 04:38:40;;;;;;;;;3.00;3.00;;;;;20.69;71.64;100763.59;5018955;28;45497;-74
2022/07/26 04:41:06;;;;;;;;;3.00;3.00;;;;;20.68;72.14;100763.59;5026837;28;45487;-75
2022/07/26 04:43:31;;;;;;;;;4.00;3.33;;;;;19.98;71.74;100643.81;5037840;28;45450;-76
2022/07/26 04:45:57;;;;;;;;;5.00;3.00;;;;;20.64;72.27;100762.72;5037132;28;45463;-77
2022/07/26 04:48:24;;;;;;;;;4.00;3.00;;;;;20.20;72.52;100703.78;5018628;28;45450;-74
2022/07/26 04:50:50;;;;;;;;;4.00;3.00;;;;;20.46;72.83;100737.19;5018247;28;45484;-79
2022/07/26 04:53:15;;;;;;;;;4.00;4.00;;;;;20.68;72.62;100760.94;5028671;28;46017;-78
2022/07/26 04:55:41;;;;;;;;;3.00;3.00;;;;;20.73;72.13;100762.69;5027024;28;45504;-75
2022/07/26 04:58:07;;;;;;;;;4.33;3.00;;;;;20.73;71.53;100754.72;5037978;28;45443;-77
2022/07/26 05:00:33;;;;;;;;;4.00;3.00;;;;;20.83;71.05;100755.47;5027501;28;45596;-74
2022/07/26 05:03:00;;;;;;;;;4.33;4.00;;;;;20.86;70.95;100756.34;5023517;28;45483;-75
2022/07/26 05:05:28;;;;;;;;;4.00;4.00;;;;;20.90;70.90;100761.63;5022834;28;45581;-73
2022/07/26 05:07:56;;;;;;;;;4.00;3.00;;;;;20.57;70.54;100699.94;5018584;28;45363;-74
2022/07/26 05:10:31;;;;;;;;;3.33;3.33;;;;;20.59;71.06;100716.75;5018363;28;45516;-79
2022/07/26 05:12:57;;;;;;;;;2.00;2.00;;;;;20.73;70.72;100757.38;5017844;28;45474;-75
2022/07/26 05:15:22;;;;;;;;;3.00;3.00;;;;;20.75;71.35;100760.88;5028598;28;45288;-75
2022/07/26 05:17:48;;;;;;;;;4.00;3.00;;;;;20.77;70.35;100764.41;5031250;28;45469;-74
2022/07/26 05:20:15;;;;;;;;;3.67;3.00;;;;;20.55;71.01;100742.44;5027362;28;45442;-74
2022/07/26 05:22:41;;;;;;;;;5.00;3.33;;;;;20.75;70.51;100762.63;5037730;28;45505;-75
2022/07/26 05:25:09;;;;;;;;;4.00;4.00;;;;;20.80;70.60;100759.06;5021803;28;45177;-74
2022/07/26 05:27:35;;;;;;;;;4.00;3.00;;;;;20.80;70.48;100744.91;5030795;28;45488;-75
2022/07/26 05:30:01;;;;;;;;;4.33;3.67;;;;;20.93;70.19;100759.84;5018248;28;45529;-77
2022/07/26 05:32:27;;;;;;;;;4.33;4.33;;;;;20.90;70.33;100754.53;5032957;28;46576;-74
2022/07/26 05:34:52;;;;;;;;;5.00;4.00;;;;;21.00;70.40;100764.19;5033623;28;45514;-78
2022/07/26 05:37:18;;;;;;;;;5.00;4.33;;;;;20.98;71.04;100762.44;5018066;28;45292;-75
2022/07/26 05:39:44;;;;;;;;;5.33;4.67;;;;;21.03;70.51;100763.28;5018108;28;45376;-76
2022/07/26 05:42:09;;;;;;;;;6.00;4.67;;;;;21.16;70.57;100762.25;5018134;28;46050;-78
2022/07/26 05:44:35;;;;;;;;;3.33;3.33;;;;;21.16;70.27;100746.31;5027013;28;45260;-76
2022/07/26 05:47:00;;;;;;;;;9.33;7.33;;;;;21.08;70.00;100726.06;5024117;28;45440;-76
2022/07/26 05:49:26;;;;;;;;;8.00;6.00;;;;;21.34;69.84;100763.84;5026948;28;45485;-79
2022/07/26 05:51:52;;;;;;;;;5.00;5.00;;;;;21.29;69.32;100746.16;5017489;28;46036;-77
2022/07/26 05:54:19;;;;;;;;;6.00;5.00;;;;;21.51;68.91;100768.13;5031642;28;45671;-74
2022/07/26 05:56:45;;;;;;;;;5.00;5.00;;;;;21.55;68.60;100762.75;5017681;28;45492;-74
2022/07/26 05:59:11;;;;;;;;;4.00;4.00;;;;;21.49;67.99;100733.59;5016834;28;45520;-76
2022/07/26 06:01:36;;;;;;;;;5.00;4.00;;;;;;;;5031400;28;45884;-77
2022/07/26 06:04:02;;;;;;;;;3.67;3.67;;;;;21.69;65.96;100759.06;5025629;28;45950;-74
2022/07/26 06:06:27;;;;;;;;;4.00;3.00;;;;;21.65;65.89;100759.09;5027256;28;45490;-74
2022/07/26 06:08:54;;;;;;;;;3.00;3.00;;;;;21.64;66.17;100762.63;5035344;28;45407;-71
2022/07/26 06:11:20;;;;;;;;;4.00;4.00;;;;;21.62;65.21;100740.50;5034644;28;45466;-72
2022/07/26 06:13:46;;;;;;;;;3.00;2.67;;;;;21.84;64.87;100765.06;5017751;28;45568;-73
2022/07/26 06:16:12;;;;;;;;;6.00;4.00;;;;;22.12;64.39;100775.31;5026513;28;45244;-72
2022/07/26 06:18:38;;;;;;;;;5.00;4.00;;;;;24.02;61.52;100771.09;5035049;28;45376;-72
2022/07/26 06:21:03;;;;;;;;;2.00;2.00;;;;;26.35;54.02;100764.94;5036358;28;45332;-73
2022/07/26 06:23:29;;;;;;;;;3.00;3.00;;;;;28.36;49.29;100764.91;5036399;28;45508;-73
2022/07/26 06:25:54;;;;;;;;;2.00;2.00;;;;;29.72;45.66;100768.09;5036202;28;45385;-73
2022/07/26 06:28:20;;;;;;;;;3.67;3.33;;;;;30.65;41.93;100745.66;5036536;28;45397;-74
2022/07/26 06:30:45;;;;;;;;;3.00;3.00;;;;;31.63;40.86;100726.16;5022248;28;45252;-77
2022/07/26 06:33:11;;;;;;;;;2.00;2.00;;;;;31.33;40.23;100770.91;5036341;28;45558;-76
2022/07/26 06:35:38;;;;;;;;;1.33;1.33;;;;;30.53;40.55;100741.75;5035154;28;45516;-74
2022/07/26 06:38:05;;;;;;;;;2.67;2.00;;;;;29.81;41.48;100770.34;5036135;28;45628;-73
2022/07/26 06:40:32;;;;;;;;;3.33;2.00;;;;;30.51;40.47;100749.94;5040384;28;46249;-74
2022/07/26 06:42:58;;;;;;;;;1.67;1.67;;;;;31.03;40.26;100772.53;5035633;28;45429;-74
2022/07/26 06:45:24;;;;;;;;;2.00;1.00;;;;;32.35;38.91;100765.38;5040420;28;45588;-74
2022/07/26 06:47:49;;;;;;;;;3.25;2.50;;;;;33.02;36.19;100759.66;5030087;28;45374;-74
2022/07/26 06:50:15;;;;;;;;;4.00;2.33;;;;;32.93;36.86;100777.31;5015594;28;46223;-75
2022/07/26 06:52:40;;;;;;;;;1.00;1.00;;;;;34.62;32.90;100774.78;5016123;28;45232;-77
2022/07/26 06:55:07;;;;;;;;;1.67;1.67;;;;;34.29;34.46;100774.34;5015083;28;45588;-76
2022/07/26 06:57:34;;;;;;;;;2.25;2.25;;;;;35.00;33.36;100749.63;5015186;28;45469;-75
2022/07/26 07:00:00;;;;;;;;;2.00;1.00;;;;;34.93;31.86;100772.72;5015541;28;46199;-77
2022/07/26 07:02:25;;;;;;;;;3.00;1.67;;;;;36.02;30.25;100775.91;5015954;28;45281;-76
2022/07/26 07:04:51;;;;;;;;;1.00;1.00;;;;;37.19;29.32;100785.31;5015674;28;45512;-76
2022/07/26 07:07:16;;;;;;;;;1.75;1.75;;;;;37.94;27.44;100783.91;5020011;28;45672;-74
2022/07/26 07:09:44;;;;;;;;;0.00;0.00;;;;;38.26;27.74;100775.84;5018724;28;45460;-76
2022/07/26 07:12:10;;;;;;;;;2.00;1.75;;;;;38.31;26.54;100709.97;5018123;28;45493;-76
2022/07/26 07:14:36;;;;;;;;;1.00;1.00;;;;;38.05;25.92;100750.31;5030244;28;45518;-77
2022/07/26 07:17:01;;;;;;;;;1.75;1.00;;;;;38.19;26.54;100744.59;5034651;28;45545;-79
2022/07/26 07:19:27;;;;;;;;;2.33;1.67;;;;;39.43;25.33;100778.69;5034284;28;46216;-79
2022/07/26 07:21:53;;;;;;;;;1.67;1.00;;;;;40.66;24.37;100786.72;5034671;28;45323;-78
2022/07/26 07:24:19;;;;;;;;;1.00;0.75;;;;;41.42;24.32;100789.53;5034470;28;45701;-80
2022/07/26 07:26:44;;;;;;;;;0.75;0.75;;;;;41.82;22.22;100791.16;5035550;28;45617;-80
2022/07/26 07:29:13;;;;;;;;;1.75;0.75;;;;;42.36;21.64;100769.34;5034872;28;45509;-79
2022/07/26 07:31:40;;;;;;;;;1.25;1.00;;;;;42.96;20.67;100785.25;5027506;28;45455;-78
2022/07/26 07:34:05;;;;;;;;;3.67;3.67;;;;;41.31;22.32;100752.22;5027923;28;45509;-80
2022/07/26 07:36:31;;;;;;;;;4.00;4.00;;;;;40.71;23.31;100774.31;5036145;28;45478;-80
2022/07/26 07:38:57;;;;;;;;;5.33;4.00;;;;;39.62;25.43;100777.94;5037953;28;45988;-77
2022/07/26 07:41:22;;;;;;;;;1.67;1.67;;;;;39.18;26.29;100776.22;5038414;28;45517;-78
2022/07/26 07:43:48;;;;;;;;;1.00;1.00;;;;;38.34;26.22;100777.91;5035539;28;45476;-75
2022/07/26 07:46:13;;;;;;;;;0.67;0.67;;;;;37.65;25.85;100769.94;5036989;28;45526;-79
2022/07/26 07:48:40;;;;;;;;;2.50;1.75;;;;;36.55;27.65;100774.75;5052863;28;45556;-77
2022/07/26 07:51:07;;;;;;;;;2.00;1.00;;;;;35.96;28.79;100778.22;5034750;28;45531;-78
2022/07/26 07:53:32;;;;;;;;;1.25;1.25;;;;;34.71;30.76;100775.16;5050644;28;45563;-79
2022/07/26 07:55:58;;;;;;;;;1.00;1.00;;;;;34.31;30.69;100761.53;5018547;28;45346;-76
2022/07/26 07:58:24;;;;;;;;;1.00;1.00;;;;;34.75;30.64;100757.72;5017499;28;46151;-78
2022/07/26 08:00:49;;;;;;;;;1.67;1.00;;;;;37.57;27.33;100778.69;5028288;28;46194;-75
2022/07/26 08:03:18;;;;;;;;;0.33;0.33;;;;;38.48;25.50;100750.34;5037937;28;45441;-78
2022/07/26 08:05:48;;;;;;;;;2.00;1.67;;;;;39.05;24.36;100781.00;5019668;28;45536;-76
2022/07/26 08:08:15;;;;;;;;;0.00;0.00;;;;;39.01;24.56;100785.00;5018525;28;45462;-74
2022/07/26 08:10:41;;;;;;;;;2.33;1.67;;;;;39.36;24.01;100779.19;5025756;28;45729;-78
2022/07/26 08:13:06;;;;;;;;;2.67;1.67;;;;;41.22;22.30;100776.91;5018644;28;45650;-77
2022/07/26 08:15:32;;;;;;;;;2.00;2.00;;;;;41.77;21.24;100778.94;5034089;28;45343;-77
2022/07/26 08:17:57;;;;;;;;;0.67;0.67;;;;;41.99;20.61;100772.16;5018994;28;45261;-77
2022/07/26 08:20:23;;;;;;;;;2.00;1.67;;;;;43.02;19.26;100770.84;5018317;28;45359;-76
2022/07/26 08:22:49;;;;;;;;;1.00;1.00;;;;;43.30;19.36;100767.97;5018776;28;45402;-77
2022/07/26 08:25:14;;;;;;;;;1.25;1.25;;;;;42.88;18.85;100771.44;5021971;28;45557;-75
2022/07/26 08:27:40;;;;;;;;;1.25;1.25;;;;;41.63;20.45;100775.66;5048485;28;45469;-80
2022/07/26 08:30:06;;;;;;;;;2.00;1.00;;;;;42.06;20.47;100765.94;5058052;28;45489;-79
2022/07/26 08:32:31;;;;;;;;;0.75;0.75;;;;;43.21;18.83;100768.91;5044536;28;45506;-76
2022/07/26 08:34:57;;;;;;;;;2.00;1.50;;;;;43.91;18.72;100768.81;5028860;28;45563;-76
2022/07/26 08:37:23;;;;;;;;;3.00;2.00;;;;;44.11;18.53;100662.03;5033287;28;45362;-76
2022/07/26 08:39:48;;;;;;;;;3.67;1.67;;;;;45.08;17.28;100764.19;5025844;28;45624;-76
2022/07/26 08:42:21;;;;;;;;;2.33;1.67;;;;;45.98;16.55;100772.25;5024819;28;45498;-76
2022/07/26 08:44:47;;;;;;;;;0.67;0.67;;;;;45.19;16.62;100740.94;5017231;28;45497;-84
2022/07/26 08:47:14;;;;;;;;;1.67;1.00;;;;;43.05;18.83;100722.94;5032474;28;46267;-76
2022/07/26 08:49:41;;;;;;;;;4.33;3.67;;;;;41.36;20.45;100746.28;5019027;28;45241;-81
2022/07/26 08:52:09;;;;;;;;;1.33;1.33;;;;;40.26;21.46;100754.81;5022871;28;45412;-85
2022/07/26 08:54:35;;;;;;;;;1.00;1.00;;;;;39.18;22.63;100759.81;5035288;28;45208;-79
2022/07/26 08:57:01;;;;;;;;;1.00;0.00;;;;;38.58;23.26;100761.38;5017860;28;46168;-84
2022/07/26 08:59:27;;;;;;;;;1.00;0.67;;;;;39.88;22.44;100753.72;5016556;28;45522;-77
2022/07/26 09:02:01;;;;;;;;;1.25;1.25;;;;;40.11;22.09;100740.66;5023524;28;45279;-82
2022/07/26 09:04:32;;;;;;;;;1.00;1.00;;;;;40.00;21.32;100747.13;5026076;28;45473;-84
2022/07/26 09:07:04;;;;;;;;;0.75;0.75;;;;;40.71;21.16;100752.41;5017673;28;46212;-85
2022/07/26 09:09:38;;;;;;;;;1.00;1.00;;;;;40.67;21.37;100739.13;5016067;28;45384;-83
2022/07/26 09:12:19;;;;;;;;;1.33;0.67;;;;;40.34;21.68;100755.00;5017779;28;45996;-83
2022/07/26 09:14:47;;;;;;;;;2.00;1.33;;;;;39.29;22.35;100703.34;5026063;28;45469;-84
2022/07/26 09:17:19;;;;;;;;;1.67;1.67;;;;;38.79;23.15;100745.84;5037122;28;45467;-83
2022/07/26 09:20:01;;;;;;;;;2.00;1.00;;;;;37.83;22.58;100563.09;5034822;28;45363;-86
2022/07/26 09:22:26;;;;;;;;;1.33;1.00;;;;;38.38;23.04;100757.53;5017693;28;45614;-87
2022/07/26 09:24:52;;;;;;;;;2.67;2.00;;;;;38.69;22.81;100752.25;5018438;28;45525;-83
2022/07/26 09:27:18;;;;;;;;;2.33;2.00;;;;;39.35;22.82;100747.38;5031944;28;45420;-85
2022/07/26 09:29:48;;;;;;;;;1.75;1.75;;;;;39.58;21.99;100750.00;5036546;28;45461;-86
2022/07/26 09:32:15;;;;;;;;;1.67;1.00;;;;;39.70;22.18;100751.63;5037656;28;45333;-86
2022/07/26 09:34:44;;;;;;;;;2.25;2.00;;;;;39.22;22.18;100743.13;5018225;28;45586;-86
2022/07/26 09:37:10;;;;;;;;;1.00;1.00;;;;;39.15;21.98;100749.16;5023995;28;45720;-83
2022/07/26 09:39:58;;;;;;;;;1.00;1.00;;;;;39.51;22.78;100752.38;5026430;28;45367;-87
2022/07/26 09:42:26;;;;;;;;;2.00;2.00;;;;;38.34;21.14;100470.44;5034320;28;45525;-85
2022/07/26 09:44:52;;;;;;;;;4.67;4.00;;;;;40.61;21.15;100726.91;5028619;28;45371;-85
2022/07/26 09:47:18;;;;;;;;;3.33;2.67;;;;;40.84;20.76;100648.03;5024129;28;45859;-84
2022/07/26 09:49:44;;;;;;;;;1.33;1.33;;;;;41.77;20.27;100754.25;5025288;28;45326;-85
2022/07/26 09:52:18;;;;;;;;;1.67;1.67;;;;;41.27;19.77;100700.59;5017644;28;46039;-83
2022/07/26 09:54:48;;;;;;;;;2.33;2.33;;;;;40.87;20.46;100716.25;5028493;28;45582;-89
2022/07/26 09:57:20;;;;;;;;;1.00;1.00;;;;;38.53;21.18;100449.72;5027947;28;45816;-90
2022/07/26 09:59:46;;;;;;;;;2.00;2.00;;;;;39.76;21.85;100692.78;5017271;28;45428;-86
2022/07/26 10:02:13;;;;;;;;;2.00;2.00;;;;;39.95;21.34;100648.19;5038069;28;45589;-84
2022/07/26 10:04:42;;;;;;;;;1.67;1.67;;;;;39.52;21.74;100750.53;5018797;28;45390;-93
2022/07/26 10:07:09;;;;;;;;;2.33;1.67;;;;;38.32;23.09;100745.31;5034884;28;46151;-84
2022/07/26 10:09:56;;;;;;;;;3.67;2.67;;;;;37.11;24.25;100747.75;5032444;28;45680;-88
2022/07/26 10:12:27;;;;;;;;;3.33;3.00;;;;;36.50;25.34;100752.47;5030935;28;45573;-89
2022/07/26 10:15:00;;;;;;;;;2.00;2.00;;;;;35.88;25.70;100740.72;5017509;28;45427;-92
2022/07/26 10:17:28;;;;;;;;;3.00;3.00;;;;;35.47;27.02;100751.81;5032329;28;46537;-91
2022/07/26 10:20:04;;;;;;;;;3.00;3.00;;;;;35.38;27.51;100751.50;5018600;28;45387;-92
2022/07/26 10:22:42;;;;;;;;;3.67;3.00;;;;;35.08;27.36;100727.38;5019589;28;45426;-90
2022/07/26 10:25:16;;;;;;;;;3.33;3.00;;;;;35.22;27.84;100748.16;5018527;28;45420;-90
2022/07/26 10:27:48;;;;;;;;;3.67;2.67;;;;;34.84;27.30;100719.09;5019417;28;45261;-89
2022/07/26 10:30:17;;;;;;;;;3.33;3.00;;;;;34.96;27.97;100752.63;5025060;28;45554;-87
2022/07/26 10:33:06;;;;;;;;;4.00;3.00;;;;;34.48;28.28;100742.31;5025476;28;45527;-86
2022/07/26 10:35:35;;;;;;;;;4.67;3.67;;;;;33.87;29.44;100742.63;5016845;28;45608;-87
2022/07/26 10:38:05;;;;;;;;;2.67;2.00;;;;;32.84;30.20;100696.69;5016476;28;45714;-88
2022/07/26 10:40:31;;;;;;;;;3.67;2.67;;;;;30.76;31.38;100491.63;5017874;28;45566;-87
2022/07/26 10:43:13;;;;;;;;;4.00;3.00;;;;;31.78;32.19;100751.47;5017398;28;45481;-88
2022/07/26 10:45:39;;;;;;;;;4.00;4.00;;;;;29.43;33.83;100520.00;5016256;28;45615;-87
2022/07/26 10:48:11;;;;;;;;;4.00;4.00;;;;;30.52;34.96;100756.19;5032756;28;45692;-85
2022/07/26 10:50:49;;;;;;;;;4.00;3.67;;;;;30.13;35.10;100762.56;5030250;28;45434;-84
2022/07/26 10:53:20;;;;;;;;;4.33;3.67;;;;;29.91;35.45;100755.50;5027877;28;45523;-79
2022/07/26 10:55:52;;;;;;;;;3.67;3.67;;;;;29.85;35.79;100760.31;5037508;28;46791;-85
2022/07/26 10:58:18;;;;;;;;;3.00;2.33;;;;;29.53;36.32;100763.53;5022497;28;46878;-87
2022/07/26 11:00:56;;;;;;;;;6.67;5.67;;;;;29.18;36.31;100756.16;5035717;28;45628;-83
2022/07/26 11:03:22;;;;;;;;;3.33;3.33;;;;;29.11;36.84;100758.22;5025927;28;45465;-91
2022/07/26 11:05:48;;;;;;;;;10.00;8.00;;;;;29.07;37.65;100753.91;5024431;28;45573;-88
2022/07/26 11:08:15;;;;;;;;;3.00;3.00;;;;;28.87;36.54;100718.00;5022443;28;46013;-90
2022/07/26 11:10:46;;;;;;;;;4.00;4.00;;;;;28.90;37.75;100752.81;5025120;28;45838;-86
2022/07/26 11:13:17;;;;;;;;;4.67;4.67;;;;;28.91;36.95;100761.78;5025233;28;45521;-79
2022/07/26 11:15:59;;;;;;;;;4.00;3.33;;;;;28.74;36.89;100728.41;5030226;28;45537;-85
2022/07/26 11:18:31;;;;;;;;;4.00;3.33;;;;;28.46;36.85;100684.81;5020664;28;46734;-83
2022/07/26 11:21:11;;;;;;;;;2.67;2.00;;;;;27.84;37.03;100538.78;5035739;28;45682;-83
2022/07/26 11:23:38;;;;;;;;;3.67;3.00;;;;;28.95;36.73;100728.44;5030070;28;45430;-83
2022/07/26 11:26:14;;;;;;;;;5.00;4.00;;;;;28.94;36.46;100692.56;5025958;28;45345;-85